sensor_id;sensor_type;location;lat;lon;timestamp;P1;durP1;ratioP1;P2;durP2;ratioP2
64075;SDS011;50327;51.328;12.324;2023-05-24T00:01:18;12.63;;;2.53;;
64075;SDS011;50327;51.328;12.324;2023-05-24T00:03:58;16.02;;;2.55;;
64075;SDS011;50327;51.328;12.324;2023-05-24T00:06:27;12.18;;;2.63;;
64075;SDS011;50327;51.328;12.324;2023-05-24T00:09:02;13.77;;;2.38;;
64075;SDS011;50327;51.328;12.324;2023-05-24T00:11:30;18.30;;;2.90;;
64075;SDS011;50327;51.328;12.324;2023-05-24T00:13:56;17.58;;;3.03;;
64075;SDS011;50327;51.328;12.324;2023-05-24T00:16:21;19.88;;;2.63;;
64075;SDS011;50327;51.328;12.324;2023-05-24T00:18:47;14.57;;;2.75;;
64075;SDS011;50327;51.328;12.324;2023-05-24T00:21:15;17.00;;;2.90;;
64075;SDS011;50327;51.328;12.324;2023-05-24T00:23:42;9.60;;;2.63;;
64075;SDS011;50327;51.328;12.324;2023-05-24T00:26:08;20.05;;;2.83;;
64075;SDS011;50327;51.328;12.324;2023-05-24T00:28:33;20.27;;;3.10;;
64075;SDS011;50327;51.328;12.324;2023-05-24T00:31:00;18.70;;;3.03;;
64075;SDS011;50327;51.328;12.324;2023-05-24T00:33:28;11.95;;;2.90;;
64075;SDS011;50327;51.328;12.324;2023-05-24T00:35:56;21.83;;;2.58;;
64075;SDS011;50327;51.328;12.324;2023-05-24T00:38:25;20.50;;;2.60;;
64075;SDS011;50327;51.328;12.324;2023-05-24T00:40:51;11.80;;;2.60;;
64075;SDS011;50327;51.328;12.324;2023-05-24T00:43:29;9.63;;;2.35;;
64075;SDS011;50327;51.328;12.324;2023-05-24T00:46:11;13.95;;;2.70;;
64075;SDS011;50327;51.328;12.324;2023-05-24T00:48:37;25.60;;;3.50;;
64075;SDS011;50327;51.328;12.324;2023-05-24T00:51:08;11.80;;;3.22;;
64075;SDS011;50327;51.328;12.324;2023-05-24T00:53:39;13.57;;;2.88;;
64075;SDS011;50327;51.328;12.324;2023-05-24T00:56:07;16.70;;;2.88;;
64075;SDS011;50327;51.328;12.324;2023-05-24T01:01:00;14.77;;;2.30;;
64075;SDS011;50327;51.328;12.324;2023-05-24T01:03:29;13.13;;;2.55;;
64075;SDS011;50327;51.328;12.324;2023-05-24T01:05:55;12.02;;;2.40;;
64075;SDS011;50327;51.328;12.324;2023-05-24T01:11:16;17.17;;;2.65;;
64075;SDS011;50327;51.328;12.324;2023-05-24T01:13:55;23.80;;;4.53;;
64075;SDS011;50327;51.328;12.324;2023-05-24T01:16:35;12.65;;;3.45;;
64075;SDS011;50327;51.328;12.324;2023-05-24T01:19:08;16.40;;;2.50;;
64075;SDS011;50327;51.328;12.324;2023-05-24T01:21:43;18.38;;;3.45;;
64075;SDS011;50327;51.328;12.324;2023-05-24T01:27:10;9.57;;;2.08;;
64075;SDS011;50327;51.328;12.324;2023-05-24T01:29:36;18.25;;;2.58;;
64075;SDS011;50327;51.328;12.324;2023-05-24T01:32:04;17.85;;;2.70;;
64075;SDS011;50327;51.328;12.324;2023-05-24T01:34:47;16.50;;;2.53;;
64075;SDS011;50327;51.328;12.324;2023-05-24T01:37:21;12.32;;;2.80;;
64075;SDS011;50327;51.328;12.324;2023-05-24T01:39:47;13.75;;;2.90;;
64075;SDS011;50327;51.328;12.324;2023-05-24T01:50:31;7.50;;;1.92;;
64075;SDS011;50327;51.328;12.324;2023-05-24T01:53:03;9.32;;;2.08;;
64075;SDS011;50327;51.328;12.324;2023-05-24T01:55:37;8.60;;;2.42;;
64075;SDS011;50327;51.328;12.324;2023-05-24T01:58:12;18.85;;;3.17;;
64075;SDS011;50327;51.328;12.324;2023-05-24T02:00:42;9.68;;;2.38;;
64075;SDS011;50327;51.328;12.324;2023-05-24T02:06:11;9.05;;;2.22;;
64075;SDS011;50327;51.328;12.324;2023-05-24T02:08:39;22.65;;;2.92;;
64075;SDS011;50327;51.328;12.324;2023-05-24T02:11:13;16.65;;;2.90;;
64075;SDS011;50327;51.328;12.324;2023-05-24T02:13:39;14.95;;;2.70;;
64075;SDS011;50327;51.328;12.324;2023-05-24T02:16:04;7.13;;;1.80;;
64075;SDS011;50327;51.328;12.324;2023-05-24T02:18:30;9.07;;;2.15;;
64075;SDS011;50327;51.328;12.324;2023-05-24T02:21:01;13.35;;;2.65;;
64075;SDS011;50327;51.328;12.324;2023-05-24T02:23:27;14.05;;;2.65;;
64075;SDS011;50327;51.328;12.324;2023-05-24T02:25:55;9.20;;;2.40;;
64075;SDS011;50327;51.328;12.324;2023-05-24T02:28:21;18.35;;;2.80;;
64075;SDS011;50327;51.328;12.324;2023-05-24T02:30:59;11.93;;;2.40;;
64075;SDS011;50327;51.328;12.324;2023-05-24T02:33:28;14.25;;;2.58;;
64075;SDS011;50327;51.328;12.324;2023-05-24T02:35:56;8.93;;;2.35;;
64075;SDS011;50327;51.328;12.324;2023-05-24T02:38:24;16.58;;;2.40;;
64075;SDS011;50327;51.328;12.324;2023-05-24T02:40:58;20.23;;;2.80;;
64075;SDS011;50327;51.328;12.324;2023-05-24T02:43:30;23.20;;;3.35;;
64075;SDS011;50327;51.328;12.324;2023-05-24T02:46:03;11.93;;;2.17;;
64075;SDS011;50327;51.328;12.324;2023-05-24T02:48:29;17.38;;;2.60;;
64075;SDS011;50327;51.328;12.324;2023-05-24T02:51:04;16.20;;;2.25;;
64075;SDS011;50327;51.328;12.324;2023-05-24T02:56:04;14.90;;;2.60;;
64075;SDS011;50327;51.328;12.324;2023-05-24T02:58:38;12.57;;;2.25;;
64075;SDS011;50327;51.328;12.324;2023-05-24T03:01:05;16.17;;;2.58;;
64075;SDS011;50327;51.328;12.324;2023-05-24T03:03:35;26.83;;;3.55;;
64075;SDS011;50327;51.328;12.324;2023-05-24T03:06:06;14.32;;;2.83;;
64075;SDS011;50327;51.328;12.324;2023-05-24T03:08:34;10.85;;;2.65;;
64075;SDS011;50327;51.328;12.324;2023-05-24T03:11:01;20.52;;;2.75;;
64075;SDS011;50327;51.328;12.324;2023-05-24T03:13:32;19.33;;;3.30;;
64075;SDS011;50327;51.328;12.324;2023-05-24T03:16:02;19.00;;;2.90;;
64075;SDS011;50327;51.328;12.324;2023-05-24T03:18:31;11.65;;;2.97;;
64075;SDS011;50327;51.328;12.324;2023-05-24T03:20:56;15.45;;;2.92;;
64075;SDS011;50327;51.328;12.324;2023-05-24T03:23:24;15.52;;;2.38;;
64075;SDS011;50327;51.328;12.324;2023-05-24T03:25:54;11.20;;;2.17;;
64075;SDS011;50327;51.328;12.324;2023-05-24T03:28:24;16.75;;;2.90;;
64075;SDS011;50327;51.328;12.324;2023-05-24T03:30:52;13.20;;;2.42;;
64075;SDS011;50327;51.328;12.324;2023-05-24T03:33:17;16.85;;;3.10;;
64075;SDS011;50327;51.328;12.324;2023-05-24T03:35:45;22.38;;;3.75;;
64075;SDS011;50327;51.328;12.324;2023-05-24T03:38:24;15.80;;;2.45;;
64075;SDS011;50327;51.328;12.324;2023-05-24T03:40:57;15.80;;;3.47;;
64075;SDS011;50327;51.328;12.324;2023-05-24T03:43:36;18.63;;;3.10;;
64075;SDS011;50327;51.328;12.324;2023-05-24T03:46:01;15.57;;;2.83;;
64075;SDS011;50327;51.328;12.324;2023-05-24T03:48:27;20.23;;;3.28;;
64075;SDS011;50327;51.328;12.324;2023-05-24T03:50:53;12.85;;;3.33;;
64075;SDS011;50327;51.328;12.324;2023-05-24T03:53:29;34.38;;;4.40;;
64075;SDS011;50327;51.328;12.324;2023-05-24T03:55:54;19.73;;;3.13;;
64075;SDS011;50327;51.328;12.324;2023-05-24T04:01:17;16.80;;;2.92;;
64075;SDS011;50327;51.328;12.324;2023-05-24T04:03:44;20.50;;;3.45;;
64075;SDS011;50327;51.328;12.324;2023-05-24T04:06:10;12.65;;;3.03;;
64075;SDS011;50327;51.328;12.324;2023-05-24T04:08:44;17.52;;;2.50;;
64075;SDS011;50327;51.328;12.324;2023-05-24T04:11:14;19.65;;;3.30;;
64075;SDS011;50327;51.328;12.324;2023-05-24T04:13:40;20.33;;;4.05;;
64075;SDS011;50327;51.328;12.324;2023-05-24T04:16:21;27.80;;;4.03;;
64075;SDS011;50327;51.328;12.324;2023-05-24T04:18:50;24.65;;;3.58;;
64075;SDS011;50327;51.328;12.324;2023-05-24T04:21:15;20.55;;;3.22;;
64075;SDS011;50327;51.328;12.324;2023-05-24T04:23:41;16.75;;;2.92;;
64075;SDS011;50327;51.328;12.324;2023-05-24T04:26:06;19.63;;;2.90;;
64075;SDS011;50327;51.328;12.324;2023-05-24T04:28:31;22.52;;;3.38;;
64075;SDS011;50327;51.328;12.324;2023-05-24T04:30:57;16.55;;;3.28;;
64075;SDS011;50327;51.328;12.324;2023-05-24T04:33:22;23.75;;;3.13;;
64075;SDS011;50327;51.328;12.324;2023-05-24T04:35:48;19.40;;;3.78;;
64075;SDS011;50327;51.328;12.324;2023-05-24T04:38:13;21.05;;;3.38;;
64075;SDS011;50327;51.328;12.324;2023-05-24T04:40:38;26.23;;;3.67;;
64075;SDS011;50327;51.328;12.324;2023-05-24T04:43:04;17.48;;;3.67;;
64075;SDS011;50327;51.328;12.324;2023-05-24T04:45:31;21.98;;;2.97;;
64075;SDS011;50327;51.328;12.324;2023-05-24T04:47:57;25.95;;;3.53;;
64075;SDS011;50327;51.328;12.324;2023-05-24T04:50:22;21.63;;;3.60;;
64075;SDS011;50327;51.328;12.324;2023-05-24T04:52:48;16.42;;;3.00;;
64075;SDS011;50327;51.328;12.324;2023-05-24T04:55:14;23.40;;;3.13;;
64075;SDS011;50327;51.328;12.324;2023-05-24T04:57:39;22.67;;;3.25;;
64075;SDS011;50327;51.328;12.324;2023-05-24T05:00:04;20.40;;;3.70;;
64075;SDS011;50327;51.328;12.324;2023-05-24T05:02:31;21.33;;;3.58;;
64075;SDS011;50327;51.328;12.324;2023-05-24T05:04:57;19.15;;;3.20;;
64075;SDS011;50327;51.328;12.324;2023-05-24T05:07:22;15.45;;;3.30;;
64075;SDS011;50327;51.328;12.324;2023-05-24T05:09:47;13.70;;;3.83;;
64075;SDS011;50327;51.328;12.324;2023-05-24T05:12:12;14.05;;;3.67;;
64075;SDS011;50327;51.328;12.324;2023-05-24T05:14:38;12.88;;;2.97;;
64075;SDS011;50327;51.328;12.324;2023-05-24T05:17:03;32.50;;;3.90;;
64075;SDS011;50327;51.328;12.324;2023-05-24T05:19:29;24.60;;;4.60;;
64075;SDS011;50327;51.328;12.324;2023-05-24T05:21:54;20.73;;;3.33;;
64075;SDS011;50327;51.328;12.324;2023-05-24T05:24:20;24.27;;;3.15;;
64075;SDS011;50327;51.328;12.324;2023-05-24T05:26:45;15.00;;;2.63;;
64075;SDS011;50327;51.328;12.324;2023-05-24T05:29:11;20.52;;;3.72;;
64075;SDS011;50327;51.328;12.324;2023-05-24T05:31:36;31.15;;;4.10;;
64075;SDS011;50327;51.328;12.324;2023-05-24T05:34:01;28.38;;;3.35;;
64075;SDS011;50327;51.328;12.324;2023-05-24T05:36:27;23.00;;;3.75;;
64075;SDS011;50327;51.328;12.324;2023-05-24T05:38:52;26.25;;;5.88;;
64075;SDS011;50327;51.328;12.324;2023-05-24T05:41:18;19.73;;;3.65;;
64075;SDS011;50327;51.328;12.324;2023-05-24T05:43:43;14.90;;;2.78;;
64075;SDS011;50327;51.328;12.324;2023-05-24T05:46:09;30.52;;;4.53;;
64075;SDS011;50327;51.328;12.324;2023-05-24T05:48:35;21.75;;;3.40;;
64075;SDS011;50327;51.328;12.324;2023-05-24T05:51:00;22.02;;;3.90;;
64075;SDS011;50327;51.328;12.324;2023-05-24T05:53:25;22.45;;;3.83;;
64075;SDS011;50327;51.328;12.324;2023-05-24T05:55:51;31.83;;;4.50;;
64075;SDS011;50327;51.328;12.324;2023-05-24T05:58:16;14.40;;;3.53;;
64075;SDS011;50327;51.328;12.324;2023-05-24T06:00:41;29.90;;;4.65;;
64075;SDS011;50327;51.328;12.324;2023-05-24T06:03:06;21.25;;;4.03;;
64075;SDS011;50327;51.328;12.324;2023-05-24T06:05:32;17.25;;;3.97;;
64075;SDS011;50327;51.328;12.324;2023-05-24T06:07:57;24.83;;;3.88;;
64075;SDS011;50327;51.328;12.324;2023-05-24T06:10:22;23.58;;;4.07;;
64075;SDS011;50327;51.328;12.324;2023-05-24T06:12:48;20.30;;;3.25;;
64075;SDS011;50327;51.328;12.324;2023-05-24T06:15:13;25.38;;;3.97;;
64075;SDS011;50327;51.328;12.324;2023-05-24T06:17:38;15.65;;;3.53;;
64075;SDS011;50327;51.328;12.324;2023-05-24T06:20:03;19.92;;;3.67;;
64075;SDS011;50327;51.328;12.324;2023-05-24T06:22:39;22.50;;;4.00;;
64075;SDS011;50327;51.328;12.324;2023-05-24T06:25:06;22.70;;;3.33;;
64075;SDS011;50327;51.328;12.324;2023-05-24T06:27:32;23.00;;;3.78;;
64075;SDS011;50327;51.328;12.324;2023-05-24T06:29:57;19.50;;;3.45;;
64075;SDS011;50327;51.328;12.324;2023-05-24T06:32:22;26.58;;;3.50;;
64075;SDS011;50327;51.328;12.324;2023-05-24T06:34:48;23.30;;;3.22;;
64075;SDS011;50327;51.328;12.324;2023-05-24T06:37:13;20.33;;;3.67;;
64075;SDS011;50327;51.328;12.324;2023-05-24T06:39:41;16.97;;;3.23;;
64075;SDS011;50327;51.328;12.324;2023-05-24T06:42:06;20.38;;;3.55;;
64075;SDS011;50327;51.328;12.324;2023-05-24T06:44:32;20.77;;;3.67;;
64075;SDS011;50327;51.328;12.324;2023-05-24T06:47:01;24.00;;;3.92;;
64075;SDS011;50327;51.328;12.324;2023-05-24T06:49:26;22.48;;;3.35;;
64075;SDS011;50327;51.328;12.324;2023-05-24T06:51:51;18.40;;;3.83;;
64075;SDS011;50327;51.328;12.324;2023-05-24T06:54:17;17.33;;;3.08;;
64075;SDS011;50327;51.328;12.324;2023-05-24T06:56:43;20.02;;;3.63;;
64075;SDS011;50327;51.328;12.324;2023-05-24T06:59:08;29.02;;;3.97;;
64075;SDS011;50327;51.328;12.324;2023-05-24T07:01:34;20.35;;;3.40;;
64075;SDS011;50327;51.328;12.324;2023-05-24T07:04:00;28.73;;;4.38;;
64075;SDS011;50327;51.328;12.324;2023-05-24T07:06:25;25.58;;;4.32;;
64075;SDS011;50327;51.328;12.324;2023-05-24T07:08:51;16.95;;;3.70;;
64075;SDS011;50327;51.328;12.324;2023-05-24T07:11:16;24.40;;;3.75;;
64075;SDS011;50327;51.328;12.324;2023-05-24T07:13:41;19.15;;;3.60;;
64075;SDS011;50327;51.328;12.324;2023-05-24T07:16:06;29.65;;;3.75;;
64075;SDS011;50327;51.328;12.324;2023-05-24T07:18:32;23.67;;;5.30;;
64075;SDS011;50327;51.328;12.324;2023-05-24T07:20:57;23.55;;;4.13;;
64075;SDS011;50327;51.328;12.324;2023-05-24T07:23:22;23.58;;;3.90;;
64075;SDS011;50327;51.328;12.324;2023-05-24T07:25:47;25.20;;;3.58;;
64075;SDS011;50327;51.328;12.324;2023-05-24T07:28:13;18.17;;;4.00;;
64075;SDS011;50327;51.328;12.324;2023-05-24T07:30:39;21.52;;;4.10;;
64075;SDS011;50327;51.328;12.324;2023-05-24T07:33:04;18.08;;;3.45;;
64075;SDS011;50327;51.328;12.324;2023-05-24T07:35:30;22.17;;;4.40;;
64075;SDS011;50327;51.328;12.324;2023-05-24T07:37:55;20.17;;;4.28;;
64075;SDS011;50327;51.328;12.324;2023-05-24T07:40:20;26.23;;;5.05;;
64075;SDS011;50327;51.328;12.324;2023-05-24T07:42:47;20.35;;;3.95;;
64075;SDS011;50327;51.328;12.324;2023-05-24T07:45:12;18.90;;;3.30;;
64075;SDS011;50327;51.328;12.324;2023-05-24T07:47:38;29.90;;;4.00;;
64075;SDS011;50327;51.328;12.324;2023-05-24T07:50:03;29.08;;;3.70;;
64075;SDS011;50327;51.328;12.324;2023-05-24T07:52:28;21.13;;;4.00;;
64075;SDS011;50327;51.328;12.324;2023-05-24T07:54:54;16.48;;;3.75;;
64075;SDS011;50327;51.328;12.324;2023-05-24T07:57:19;30.77;;;3.90;;
64075;SDS011;50327;51.328;12.324;2023-05-24T07:59:44;21.65;;;3.75;;
64075;SDS011;50327;51.328;12.324;2023-05-24T08:02:10;24.73;;;4.07;;
64075;SDS011;50327;51.328;12.324;2023-05-24T08:04:36;18.27;;;4.07;;
64075;SDS011;50327;51.328;12.324;2023-05-24T08:07:01;26.42;;;3.97;;
64075;SDS011;50327;51.328;12.324;2023-05-24T08:09:27;17.42;;;3.50;;
64075;SDS011;50327;51.328;12.324;2023-05-24T08:11:53;18.40;;;3.42;;
64075;SDS011;50327;51.328;12.324;2023-05-24T08:14:19;22.90;;;3.50;;
64075;SDS011;50327;51.328;12.324;2023-05-24T08:16:44;18.30;;;3.67;;
64075;SDS011;50327;51.328;12.324;2023-05-24T08:19:09;25.55;;;3.53;;
64075;SDS011;50327;51.328;12.324;2023-05-24T08:21:35;24.45;;;4.50;;
64075;SDS011;50327;51.328;12.324;2023-05-24T08:24:01;22.08;;;3.63;;
64075;SDS011;50327;51.328;12.324;2023-05-24T08:26:26;22.55;;;3.50;;
64075;SDS011;50327;51.328;12.324;2023-05-24T08:28:52;20.30;;;3.53;;
64075;SDS011;50327;51.328;12.324;2023-05-24T08:31:17;22.70;;;3.88;;
64075;SDS011;50327;51.328;12.324;2023-05-24T08:33:42;15.90;;;3.25;;
64075;SDS011;50327;51.328;12.324;2023-05-24T08:36:08;24.27;;;4.57;;
64075;SDS011;50327;51.328;12.324;2023-05-24T08:38:33;27.23;;;4.28;;
64075;SDS011;50327;51.328;12.324;2023-05-24T08:40:58;26.90;;;3.50;;
64075;SDS011;50327;51.328;12.324;2023-05-24T08:43:24;17.42;;;3.17;;
64075;SDS011;50327;51.328;12.324;2023-05-24T08:45:50;23.65;;;3.88;;
64075;SDS011;50327;51.328;12.324;2023-05-24T08:48:16;23.73;;;3.75;;
64075;SDS011;50327;51.328;12.324;2023-05-24T08:50:42;28.00;;;3.85;;
64075;SDS011;50327;51.328;12.324;2023-05-24T08:53:08;24.00;;;3.90;;
64075;SDS011;50327;51.328;12.324;2023-05-24T08:55:34;13.27;;;3.05;;
64075;SDS011;50327;51.328;12.324;2023-05-24T08:57:59;18.80;;;3.88;;
64075;SDS011;50327;51.328;12.324;2023-05-24T09:00:25;23.73;;;3.50;;
64075;SDS011;50327;51.328;12.324;2023-05-24T09:02:50;20.60;;;3.00;;
64075;SDS011;50327;51.328;12.324;2023-05-24T09:05:16;17.00;;;3.20;;
64075;SDS011;50327;51.328;12.324;2023-05-24T09:07:44;13.85;;;3.17;;
64075;SDS011;50327;51.328;12.324;2023-05-24T09:12:36;33.65;;;3.63;;
64075;SDS011;50327;51.328;12.324;2023-05-24T09:15:02;21.50;;;4.20;;
64075;SDS011;50327;51.328;12.324;2023-05-24T09:17:28;20.67;;;3.75;;
64075;SDS011;50327;51.328;12.324;2023-05-24T09:19:54;25.13;;;4.38;;
64075;SDS011;50327;51.328;12.324;2023-05-24T09:22:20;22.48;;;3.58;;
64075;SDS011;50327;51.328;12.324;2023-05-24T09:24:49;22.48;;;4.82;;
64075;SDS011;50327;51.328;12.324;2023-05-24T09:27:15;14.88;;;3.65;;
64075;SDS011;50327;51.328;12.324;2023-05-24T09:29:46;17.63;;;3.65;;
64075;SDS011;50327;51.328;12.324;2023-05-24T09:32:13;19.90;;;3.60;;
64075;SDS011;50327;51.328;12.324;2023-05-24T09:34:39;18.90;;;3.20;;
64075;SDS011;50327;51.328;12.324;2023-05-24T09:37:04;10.45;;;3.30;;
64075;SDS011;50327;51.328;12.324;2023-05-24T09:39:31;20.52;;;3.58;;
64075;SDS011;50327;51.328;12.324;2023-05-24T09:41:56;19.40;;;4.13;;
64075;SDS011;50327;51.328;12.324;2023-05-24T09:44:25;26.05;;;4.30;;
64075;SDS011;50327;51.328;12.324;2023-05-24T09:46:52;29.00;;;4.80;;
64075;SDS011;50327;51.328;12.324;2023-05-24T09:49:17;20.60;;;3.83;;
64075;SDS011;50327;51.328;12.324;2023-05-24T09:51:45;18.17;;;3.47;;
64075;SDS011;50327;51.328;12.324;2023-05-24T09:54:11;21.55;;;3.58;;
64075;SDS011;50327;51.328;12.324;2023-05-24T09:56:36;19.65;;;3.50;;
64075;SDS011;50327;51.328;12.324;2023-05-24T09:59:04;16.92;;;3.63;;
64075;SDS011;50327;51.328;12.324;2023-05-24T10:01:29;15.30;;;4.38;;
64075;SDS011;50327;51.328;12.324;2023-05-24T10:03:57;15.15;;;3.67;;
64075;SDS011;50327;51.328;12.324;2023-05-24T10:06:24;24.42;;;3.33;;
64075;SDS011;50327;51.328;12.324;2023-05-24T10:08:50;12.60;;;3.60;;
64075;SDS011;50327;51.328;12.324;2023-05-24T10:11:21;15.30;;;3.83;;
64075;SDS011;50327;51.328;12.324;2023-05-24T10:13:47;15.75;;;3.03;;
64075;SDS011;50327;51.328;12.324;2023-05-24T10:16:12;34.55;;;3.63;;
64075;SDS011;50327;51.328;12.324;2023-05-24T10:18:37;15.23;;;4.05;;
64075;SDS011;50327;51.328;12.324;2023-05-24T10:21:04;17.13;;;3.22;;
64075;SDS011;50327;51.328;12.324;2023-05-24T10:23:31;19.45;;;4.15;;
64075;SDS011;50327;51.328;12.324;2023-05-24T10:26:16;17.15;;;3.08;;
64075;SDS011;50327;51.328;12.324;2023-05-24T10:31:10;19.73;;;3.30;;
64075;SDS011;50327;51.328;12.324;2023-05-24T10:33:37;19.85;;;3.92;;
64075;SDS011;50327;51.328;12.324;2023-05-24T10:36:03;18.38;;;4.50;;
64075;SDS011;50327;51.328;12.324;2023-05-24T10:38:30;18.67;;;3.78;;
64075;SDS011;50327;51.328;12.324;2023-05-24T10:40:56;31.25;;;4.28;;
64075;SDS011;50327;51.328;12.324;2023-05-24T10:43:21;13.48;;;3.40;;
64075;SDS011;50327;51.328;12.324;2023-05-24T10:45:47;18.55;;;3.60;;
64075;SDS011;50327;51.328;12.324;2023-05-24T10:50:38;14.57;;;3.15;;
64075;SDS011;50327;51.328;12.324;2023-05-24T10:53:17;18.85;;;3.38;;
64075;SDS011;50327;51.328;12.324;2023-05-24T10:58:17;18.05;;;2.90;;
64075;SDS011;50327;51.328;12.324;2023-05-24T11:00:43;14.43;;;3.50;;
64075;SDS011;50327;51.328;12.324;2023-05-24T11:03:08;17.65;;;4.13;;
64075;SDS011;50327;51.328;12.324;2023-05-24T11:05:35;12.52;;;3.38;;
64075;SDS011;50327;51.328;12.324;2023-05-24T11:08:13;16.55;;;3.45;;
64075;SDS011;50327;51.328;12.324;2023-05-24T11:10:38;11.60;;;3.00;;
64075;SDS011;50327;51.328;12.324;2023-05-24T11:13:06;7.47;;;2.30;;
64075;SDS011;50327;51.328;12.324;2023-05-24T11:15:31;20.65;;;2.90;;
64075;SDS011;50327;51.328;12.324;2023-05-24T11:20:36;9.30;;;2.30;;
64075;SDS011;50327;51.328;12.324;2023-05-24T11:23:02;12.77;;;2.95;;
64075;SDS011;50327;51.328;12.324;2023-05-24T11:25:27;13.55;;;3.28;;
64075;SDS011;50327;51.328;12.324;2023-05-24T11:27:53;12.18;;;2.70;;
64075;SDS011;50327;51.328;12.324;2023-05-24T11:30:20;11.27;;;2.85;;
64075;SDS011;50327;51.328;12.324;2023-05-24T11:32:46;6.57;;;2.38;;
64075;SDS011;50327;51.328;12.324;2023-05-24T11:35:12;15.38;;;2.63;;
64075;SDS011;50327;51.328;12.324;2023-05-24T11:37:38;10.93;;;2.10;;
64075;SDS011;50327;51.328;12.324;2023-05-24T11:40:04;6.60;;;1.88;;
64075;SDS011;50327;51.328;12.324;2023-05-24T11:42:30;9.70;;;2.20;;
64075;SDS011;50327;51.328;12.324;2023-05-24T11:44:55;10.70;;;1.70;;
64075;SDS011;50327;51.328;12.324;2023-05-24T11:47:20;8.02;;;2.25;;
64075;SDS011;50327;51.328;12.324;2023-05-24T11:49:50;11.73;;;2.05;;
64075;SDS011;50327;51.328;12.324;2023-05-24T11:52:15;10.43;;;2.35;;
64075;SDS011;50327;51.328;12.324;2023-05-24T11:54:41;13.52;;;2.47;;
64075;SDS011;50327;51.328;12.324;2023-05-24T11:57:06;18.23;;;3.05;;
64075;SDS011;50327;51.328;12.324;2023-05-24T11:59:36;12.95;;;2.30;;
64075;SDS011;50327;51.328;12.324;2023-05-24T12:02:03;14.48;;;2.50;;
64075;SDS011;50327;51.328;12.324;2023-05-24T12:04:29;14.30;;;2.47;;
64075;SDS011;50327;51.328;12.324;2023-05-24T12:06:55;12.25;;;2.35;;
64075;SDS011;50327;51.328;12.324;2023-05-24T12:09:20;12.35;;;2.92;;
64075;SDS011;50327;51.328;12.324;2023-05-24T12:11:46;12.95;;;2.28;;
64075;SDS011;50327;51.328;12.324;2023-05-24T12:14:12;9.23;;;1.83;;
64075;SDS011;50327;51.328;12.324;2023-05-24T12:16:38;17.90;;;2.40;;
64075;SDS011;50327;51.328;12.324;2023-05-24T12:19:03;9.85;;;2.28;;
64075;SDS011;50327;51.328;12.324;2023-05-24T12:21:29;10.30;;;2.17;;
64075;SDS011;50327;51.328;12.324;2023-05-24T12:23:55;10.90;;;2.58;;
64075;SDS011;50327;51.328;12.324;2023-05-24T12:26:21;16.88;;;3.60;;
64075;SDS011;50327;51.328;12.324;2023-05-24T12:28:46;13.38;;;2.70;;
64075;SDS011;50327;51.328;12.324;2023-05-24T12:31:16;9.45;;;2.92;;
64075;SDS011;50327;51.328;12.324;2023-05-24T12:33:42;16.08;;;4.65;;
64075;SDS011;50327;51.328;12.324;2023-05-24T12:36:08;15.25;;;3.50;;
64075;SDS011;50327;51.328;12.324;2023-05-24T12:38:34;11.80;;;3.22;;
64075;SDS011;50327;51.328;12.324;2023-05-24T12:40:59;20.73;;;4.13;;
64075;SDS011;50327;51.328;12.324;2023-05-24T12:43:24;20.45;;;4.10;;
64075;SDS011;50327;51.328;12.324;2023-05-24T12:45:50;23.17;;;3.28;;
64075;SDS011;50327;51.328;12.324;2023-05-24T12:48:15;14.50;;;3.03;;
64075;SDS011;50327;51.328;12.324;2023-05-24T12:50:41;12.63;;;3.22;;
64075;SDS011;50327;51.328;12.324;2023-05-24T12:53:06;12.18;;;3.13;;
64075;SDS011;50327;51.328;12.324;2023-05-24T12:55:31;15.48;;;2.60;;
64075;SDS011;50327;51.328;12.324;2023-05-24T12:57:56;12.02;;;2.95;;
64075;SDS011;50327;51.328;12.324;2023-05-24T13:00:23;14.32;;;3.80;;
64075;SDS011;50327;51.328;12.324;2023-05-24T13:02:48;16.75;;;3.25;;
64075;SDS011;50327;51.328;12.324;2023-05-24T13:05:16;14.15;;;3.30;;
64075;SDS011;50327;51.328;12.324;2023-05-24T13:07:43;14.13;;;4.05;;
64075;SDS011;50327;51.328;12.324;2023-05-24T13:10:08;17.50;;;4.57;;
64075;SDS011;50327;51.328;12.324;2023-05-24T13:12:33;16.90;;;3.40;;
64075;SDS011;50327;51.328;12.324;2023-05-24T13:15:00;15.65;;;3.55;;
64075;SDS011;50327;51.328;12.324;2023-05-24T13:17:25;14.15;;;3.78;;
64075;SDS011;50327;51.328;12.324;2023-05-24T13:19:51;16.75;;;3.20;;
64075;SDS011;50327;51.328;12.324;2023-05-24T13:22:16;11.43;;;2.92;;
64075;SDS011;50327;51.328;12.324;2023-05-24T13:24:41;11.40;;;3.08;;
64075;SDS011;50327;51.328;12.324;2023-05-24T13:27:07;12.43;;;3.53;;
64075;SDS011;50327;51.328;12.324;2023-05-24T13:29:32;12.23;;;3.72;;
64075;SDS011;50327;51.328;12.324;2023-05-24T13:31:57;13.15;;;3.05;;
64075;SDS011;50327;51.328;12.324;2023-05-24T13:34:22;9.93;;;2.90;;
64075;SDS011;50327;51.328;12.324;2023-05-24T13:36:49;13.63;;;3.92;;
64075;SDS011;50327;51.328;12.324;2023-05-24T13:39:15;16.13;;;3.15;;
64075;SDS011;50327;51.328;12.324;2023-05-24T13:41:40;13.30;;;2.72;;
64075;SDS011;50327;51.328;12.324;2023-05-24T13:44:05;13.60;;;2.75;;
64075;SDS011;50327;51.328;12.324;2023-05-24T13:46:31;13.93;;;3.38;;
64075;SDS011;50327;51.328;12.324;2023-05-24T13:48:56;14.95;;;3.67;;
64075;SDS011;50327;51.328;12.324;2023-05-24T13:51:22;11.57;;;2.67;;
64075;SDS011;50327;51.328;12.324;2023-05-24T13:53:48;17.25;;;3.08;;
64075;SDS011;50327;51.328;12.324;2023-05-24T13:56:16;16.08;;;3.63;;
64075;SDS011;50327;51.328;12.324;2023-05-24T13:58:41;16.05;;;3.67;;
64075;SDS011;50327;51.328;12.324;2023-05-24T14:01:07;14.73;;;3.03;;
64075;SDS011;50327;51.328;12.324;2023-05-24T14:03:32;15.13;;;3.88;;
64075;SDS011;50327;51.328;12.324;2023-05-24T14:05:58;14.35;;;3.22;;
64075;SDS011;50327;51.328;12.324;2023-05-24T14:08:23;11.45;;;2.90;;
64075;SDS011;50327;51.328;12.324;2023-05-24T14:10:48;15.40;;;2.92;;
64075;SDS011;50327;51.328;12.324;2023-05-24T14:13:14;12.15;;;3.15;;
64075;SDS011;50327;51.328;12.324;2023-05-24T14:15:39;15.52;;;3.28;;
64075;SDS011;50327;51.328;12.324;2023-05-24T14:18:05;18.50;;;4.00;;
64075;SDS011;50327;51.328;12.324;2023-05-24T14:20:32;10.30;;;3.20;;
64075;SDS011;50327;51.328;12.324;2023-05-24T14:22:57;10.68;;;2.58;;
64075;SDS011;50327;51.328;12.324;2023-05-24T14:25:23;13.95;;;3.33;;
64075;SDS011;50327;51.328;12.324;2023-05-24T14:27:48;13.07;;;2.88;;
64075;SDS011;50327;51.328;12.324;2023-05-24T14:30:13;18.77;;;3.42;;
64075;SDS011;50327;51.328;12.324;2023-05-24T14:32:39;24.27;;;4.13;;
64075;SDS011;50327;51.328;12.324;2023-05-24T14:35:04;12.82;;;3.00;;
64075;SDS011;50327;51.328;12.324;2023-05-24T14:37:30;8.27;;;3.15;;
64075;SDS011;50327;51.328;12.324;2023-05-24T14:39:55;10.00;;;2.78;;
64075;SDS011;50327;51.328;12.324;2023-05-24T14:42:20;10.75;;;1.90;;
64075;SDS011;50327;51.328;12.324;2023-05-24T14:44:45;9.95;;;2.08;;
64075;SDS011;50327;51.328;12.324;2023-05-24T14:47:11;9.40;;;2.25;;
64075;SDS011;50327;51.328;12.324;2023-05-24T14:49:36;7.25;;;2.20;;
64075;SDS011;50327;51.328;12.324;2023-05-24T14:52:01;5.57;;;1.90;;
64075;SDS011;50327;51.328;12.324;2023-05-24T14:54:26;12.45;;;2.25;;
64075;SDS011;50327;51.328;12.324;2023-05-24T14:56:52;10.32;;;2.30;;
64075;SDS011;50327;51.328;12.324;2023-05-24T14:59:17;12.93;;;2.17;;